Time;durP1;ratioP1;P1;durP2;ratioP2;P2;SDS_P1;SDS_P2;PMS_P1;PMS_P2;Temp;Humidity;BMP_temperature;BMP_pressure;BME280_temperature;BME280_humidity;BME280_pressure;Samples;Min_cycle;Max_cycle;Signal;HPM_P1;HPM_P2
2021/10/16 00:01:02;;;;;;;4.07;3.03;;;;;;;;;;5068401;28;20012;-50
2021/10/16 00:03:28;;;;;;;2.78;2.35;;;;;;;;;;5067982;28;20024;-52
2021/10/16 00:05:54;;;;;;;3.90;2.90;;;;;;;;;;5068619;28;20407;-52
2021/10/16 00:08:20;;;;;;;3.90;2.60;;;;;;;;;;5067555;28;20407;-51
2021/10/16 00:10:47;;;;;;;3.00;2.33;;;;;;;;;;5068052;28;20051;-52
2021/10/16 00:13:13;;;;;;;3.45;2.45;;;;;;;;;;5067536;28;20511;-52
2021/10/16 00:15:39;;;;;;;3.58;2.58;;;;;;;;;;5067639;28;20032;-53
2021/10/16 00:18:05;;;;;;;3.95;2.50;;;;;;;;;;5067815;28;20032;-51
2021/10/16 00:20:31;;;;;;;5.30;3.00;;;;;;;;;;5067531;28;20020;-53
2021/10/16 00:22:57;;;;;;;6.47;2.80;;;;;;;;;;5067551;28;20399;-53
2021/10/16 00:25:23;;;;;;;3.70;2.38;;;;;;;;;;5067978;28;20090;-52
2021/10/16 00:27:49;;;;;;;3.63;2.45;;;;;;;;;;5076032;28;20028;-49
2021/10/16 00:30:15;;;;;;;3.58;2.60;;;;;;;;;;5070873;28;20029;-53
2021/10/16 00:32:41;;;;;;;3.47;2.53;;;;;;;;;;5075443;28;20135;-51
2021/10/16 00:35:08;;;;;;;3.67;2.70;;;;;;;;;;5088077;28;20439;-54
2021/10/16 00:37:34;;;;;;;5.00;2.80;;;;;;;;;;5087463;28;20028;-54
2021/10/16 00:40:00;;;;;;;3.58;2.40;;;;;;;;;;5085097;28;20458;-54
2021/10/16 00:42:26;;;;;;;4.75;3.00;;;;;;;;;;5067035;28;20878;-52
2021/10/16 00:44:52;;;;;;;4.80;2.88;;;;;;;;;;5067419;28;20056;-53
2021/10/16 00:47:18;;;;;;;4.07;2.70;;;;;;;;;;5067017;28;20029;-51
2021/10/16 00:49:44;;;;;;;3.53;2.65;;;;;;;;;;5066887;28;20027;-50
2021/10/16 00:52:11;;;;;;;4.63;2.67;;;;;;;;;;5067001;28;20024;-53
2021/10/16 00:54:37;;;;;;;3.60;2.67;;;;;;;;;;5067507;28;20044;-51
2021/10/16 00:57:03;;;;;;;4.20;2.83;;;;;;;;;;5067398;28;20016;-49
2021/10/16 00:59:30;;;;;;;4.30;2.65;;;;;;;;;;5066819;28;20074;-52
2021/10/16 01:01:56;;;;;;;3.55;2.40;;;;;;;;;;5066951;28;20033;-53
2021/10/16 01:04:22;;;;;;;4.03;2.50;;;;;;;;;;5066393;28;20077;-52
2021/10/16 01:06:48;;;;;;;4.63;2.53;;;;;;;;;;5066893;28;20043;-54
2021/10/16 01:09:15;;;;;;;3.42;2.63;;;;;;;;;;5066373;28;20079;-50
2021/10/16 01:11:44;;;;;;;3.65;2.70;;;;;;;;;;5066966;28;20036;-54
2021/10/16 01:14:12;;;;;;;3.08;2.58;;;;;;;;;;5066308;28;20029;-54
2021/10/16 01:16:43;;;;;;;3.97;2.65;;;;;;;;;;5067285;28;20025;-53
2021/10/16 01:19:15;;;;;;;3.72;2.75;;;;;;;;;;5067414;28;20109;-51
2021/10/16 01:21:49;;;;;;;3.58;2.60;;;;;;;;;;5066636;28;20025;-53
2021/10/16 01:24:16;;;;;;;3.95;2.70;;;;;;;;;;5066151;28;20028;-49
2021/10/16 01:26:43;;;;;;;4.07;2.45;;;;;;;;;;5066682;28;20021;-52
2021/10/16 01:29:10;;;;;;;3.72;2.53;;;;;;;;;;5070215;28;20029;-54
2021/10/16 01:31:38;;;;;;;4.03;2.97;;;;;;;;;;5066811;28;20017;-54
2021/10/16 01:34:04;;;;;;;3.75;2.95;;;;;;;;;;5066016;28;20076;-52
2021/10/16 01:36:43;;;;;;;4.13;2.90;;;;;;;;;;5065248;28;20024;-52
2021/10/16 01:39:09;;;;;;;4.47;2.70;;;;;;;;;;5067002;28;20024;-56
2021/10/16 01:41:36;;;;;;;3.72;2.47;;;;;;;;;;5066696;28;20039;-53
2021/10/16 01:44:03;;;;;;;4.00;3.10;;;;;;;;;;5064202;28;20036;-53
2021/10/16 01:46:29;;;;;;;4.13;2.90;;;;;;;;;;5065949;28;20025;-53
2021/10/16 01:48:55;;;;;;;3.35;2.40;;;;;;;;;;5066139;28;20125;-53
2021/10/16 01:51:21;;;;;;;3.25;2.53;;;;;;;;;;5066130;28;20446;-54
2021/10/16 01:53:47;;;;;;;4.55;2.80;;;;;;;;;;5064852;28;20549;-53
2021/10/16 01:56:13;;;;;;;3.80;2.88;;;;;;;;;;5066245;28;20640;-53
2021/10/16 01:58:40;;;;;;;4.00;2.75;;;;;;;;;;5066697;28;20027;-51
2021/10/16 02:01:06;;;;;;;3.30;2.50;;;;;;;;;;5066758;28;20021;-49
2021/10/16 02:03:32;;;;;;;3.53;2.83;;;;;;;;;;5065307;28;20502;-53
2021/10/16 02:05:58;;;;;;;3.70;2.67;;;;;;;;;;5066255;28;20016;-52
2021/10/16 02:08:24;;;;;;;5.10;3.10;;;;;;;;;;5065906;28;20135;-51
2021/10/16 02:10:50;;;;;;;4.90;3.17;;;;;;;;;;5066343;28;20111;-51
2021/10/16 02:13:16;;;;;;;4.25;2.92;;;;;;;;;;5065367;28;20459;-54
2021/10/16 02:15:42;;;;;;;4.82;2.60;;;;;;;;;;5066185;28;20384;-50
2021/10/16 02:18:08;;;;;;;3.75;2.70;;;;;;;;;;5066650;28;20472;-51
2021/10/16 02:20:34;;;;;;;3.25;2.78;;;;;;;;;;5065758;28;20056;-51
2021/10/16 02:23:00;;;;;;;3.25;2.50;;;;;;;;;;5065903;28;20699;-52
2021/10/16 02:25:26;;;;;;;4.55;2.88;;;;;;;;;;5064576;28;20154;-52
2021/10/16 02:27:52;;;;;;;3.53;2.55;;;;;;;;;;5082501;28;20148;-51
2021/10/16 02:30:18;;;;;;;4.85;3.20;;;;;;;;;;5085288;28;20043;-53
2021/10/16 02:32:44;;;;;;;3.33;2.58;;;;;;;;;;5084756;28;20391;-51
2021/10/16 02:35:10;;;;;;;3.83;2.72;;;;;;;;;;5086664;28;20032;-54
2021/10/16 02:37:36;;;;;;;4.03;2.88;;;;;;;;;;5086349;28;20463;-53
2021/10/16 02:40:03;;;;;;;4.15;2.58;;;;;;;;;;5085304;28;20055;-54
2021/10/16 02:42:29;;;;;;;3.17;2.47;;;;;;;;;;5085556;28;20475;-53
2021/10/16 02:44:56;;;;;;;3.53;2.75;;;;;;;;;;5085916;28;20428;-53
2021/10/16 02:47:23;;;;;;;4.70;2.92;;;;;;;;;;5085952;28;20056;-52
2021/10/16 02:49:49;;;;;;;4.07;2.85;;;;;;;;;;5085820;28;20025;-52
2021/10/16 02:52:15;;;;;;;4.20;3.58;;;;;;;;;;5085551;28;20031;-54
2021/10/16 02:54:42;;;;;;;4.22;3.00;;;;;;;;;;5085849;28;20454;-53
2021/10/16 02:57:08;;;;;;;4.45;2.80;;;;;;;;;;5089915;28;20152;-51
2021/10/16 02:59:34;;;;;;;3.58;2.75;;;;;;;;;;5089348;28;20517;-53
2021/10/16 03:02:00;;;;;;;4.25;2.60;;;;;;;;;;5089604;28;20043;-52
2021/10/16 03:04:26;;;;;;;4.38;2.70;;;;;;;;;;5089263;28;20480;-53
2021/10/16 03:06:52;;;;;;;5.72;3.22;;;;;;;;;;5089315;28;20032;-53
2021/10/16 03:09:18;;;;;;;4.43;2.90;;;;;;;;;;5081195;28;20040;-52
2021/10/16 03:11:44;;;;;;;4.50;3.25;;;;;;;;;;5069117;28;20567;-54
2021/10/16 03:14:10;;;;;;;4.80;3.08;;;;;;;;;;5068923;28;20024;-53
2021/10/16 03:16:36;;;;;;;4.38;3.08;;;;;;;;;;5069517;28;20153;-53
2021/10/16 03:19:02;;;;;;;4.55;3.28;;;;;;;;;;5069151;28;20495;-53
2021/10/16 03:21:28;;;;;;;4.32;3.10;;;;;;;;;;5068641;28;20523;-52
2021/10/16 03:23:54;;;;;;;4.47;3.38;;;;;;;;;;5068447;28;20036;-53
2021/10/16 03:26:21;;;;;;;5.53;3.67;;;;;;;;;;5068807;28;20503;-54
2021/10/16 03:28:47;;;;;;;4.53;3.38;;;;;;;;;;5068698;28;20521;-54
2021/10/16 03:31:13;;;;;;;4.95;3.65;;;;;;;;;;5068749;28;20442;-54
2021/10/16 03:33:39;;;;;;;5.35;3.72;;;;;;;;;;5068925;28;20066;-51
2021/10/16 03:36:05;;;;;;;5.88;4.00;;;;;;;;;;5067529;28;20487;-52
2021/10/16 03:38:31;;;;;;;5.15;3.60;;;;;;;;;;5068281;28;20024;-58
2021/10/16 03:40:57;;;;;;;5.38;3.78;;;;;;;;;;5068744;28;20028;-54
2021/10/16 03:43:23;;;;;;;4.07;3.10;;;;;;;;;;5068268;28;20521;-54
2021/10/16 03:45:49;;;;;;;4.85;3.60;;;;;;;;;;5068604;28;20384;-53
2021/10/16 03:48:15;;;;;;;5.13;3.80;;;;;;;;;;5066521;28;20587;-54
2021/10/16 03:50:41;;;;;;;6.32;4.30;;;;;;;;;;5068266;28;20131;-53
2021/10/16 03:53:07;;;;;;;5.72;3.95;;;;;;;;;;5068890;28;20035;-53
2021/10/16 03:55:33;;;;;;;4.72;3.72;;;;;;;;;;5068355;28;20404;-54
2021/10/16 03:57:59;;;;;;;5.65;4.00;;;;;;;;;;5068156;28;20017;-54
2021/10/16 04:00:25;;;;;;;6.57;4.40;;;;;;;;;;5066627;28;20028;-53
2021/10/16 04:02:53;;;;;;;4.57;3.60;;;;;;;;;;5068142;28;20091;-51
2021/10/16 04:05:19;;;;;;;5.13;3.83;;;;;;;;;;5067643;28;20032;-52
2021/10/16 04:07:45;;;;;;;5.40;3.97;;;;;;;;;;5067219;28;20385;-52
2021/10/16 04:10:11;;;;;;;5.32;3.33;;;;;;;;;;5067417;28;20407;-54
2021/10/16 04:12:38;;;;;;;5.38;3.92;;;;;;;;;;5068339;28;20032;-53
2021/10/16 04:15:05;;;;;;;5.18;3.05;;;;;;;;;;5067993;28;20028;-51
2021/10/16 04:17:31;;;;;;;4.18;3.03;;;;;;;;;;5067848;28;20024;-54
2021/10/16 04:19:57;;;;;;;3.95;3.00;;;;;;;;;;5068081;28;20024;-54
2021/10/16 04:22:24;;;;;;;4.22;3.08;;;;;;;;;;5067357;28;20025;-53
2021/10/16 04:24:50;;;;;;;3.38;2.83;;;;;;;;;;5067194;28;20028;-54
2021/10/16 04:27:16;;;;;;;4.05;3.22;;;;;;;;;;5087944;28;20028;-54
2021/10/16 04:29:42;;;;;;;4.80;3.22;;;;;;;;;;5087387;28;20032;-53
2021/10/16 04:32:08;;;;;;;5.40;3.58;;;;;;;;;;5067592;28;20121;-54
2021/10/16 04:34:34;;;;;;;5.40;3.60;;;;;;;;;;5067349;28;20523;-54
2021/10/16 04:37:00;;;;;;;5.32;3.60;;;;;;;;;;5067700;28;20051;-53
2021/10/16 04:39:28;;;;;;;4.28;3.17;;;;;;;;;;5067425;28;20072;-52
2021/10/16 04:41:54;;;;;;;5.45;3.40;;;;;;;;;;5067323;28;20103;-54
2021/10/16 04:44:20;;;;;;;5.88;3.60;;;;;;;;;;5067126;28;20064;-54
2021/10/16 04:46:46;;;;;;;4.82;3.65;;;;;;;;;;5067466;28;20032;-54
2021/10/16 04:49:12;;;;;;;5.40;3.60;;;;;;;;;;5067638;28;20035;-53
2021/10/16 04:51:38;;;;;;;4.75;3.40;;;;;;;;;;5067851;28;20021;-53
2021/10/16 04:54:04;;;;;;;5.72;3.83;;;;;;;;;;5066661;28;20056;-54
2021/10/16 04:56:30;;;;;;;5.93;3.80;;;;;;;;;;5067030;28;20025;-52
2021/10/16 04:58:56;;;;;;;8.45;4.57;;;;;;;;;;5066978;28;20028;-50
2021/10/16 05:01:23;;;;;;;5.88;4.18;;;;;;;;;;5065531;28;20499;-51
2021/10/16 05:03:49;;;;;;;5.55;4.38;;;;;;;;;;5067022;28;20510;-53
2021/10/16 05:06:15;;;;;;;6.57;4.60;;;;;;;;;;5066674;28;20078;-52
2021/10/16 05:08:41;;;;;;;7.60;4.68;;;;;;;;;;5065988;28;20411;-53
2021/10/16 05:11:07;;;;;;;6.80;4.57;;;;;;;;;;5066860;28;20035;-53
2021/10/16 05:13:33;;;;;;;6.78;4.43;;;;;;;;;;5066643;28;20565;-51
2021/10/16 05:15:59;;;;;;;7.10;4.70;;;;;;;;;;5070708;28;20035;-53
2021/10/16 05:18:26;;;;;;;6.80;4.53;;;;;;;;;;5077323;28;20020;-54
2021/10/16 05:20:52;;;;;;;5.43;3.72;;;;;;;;;;5087122;28;20107;-53
2021/10/16 05:23:18;;;;;;;5.55;4.35;;;;;;;;;;5068649;28;20020;-53
2021/10/16 05:25:45;;;;;;;5.70;4.05;;;;;;;;;;5067583;28;20069;-52
2021/10/16 05:28:11;;;;;;;6.28;4.30;;;;;;;;;;5087407;28;20154;-51
2021/10/16 05:30:37;;;;;;;7.03;4.70;;;;;;;;;;5082094;28;20052;-53
2021/10/16 05:33:04;;;;;;;6.95;4.70;;;;;;;;;;5071620;28;20064;-53
2021/10/16 05:35:30;;;;;;;5.68;4.30;;;;;;;;;;5080835;28;20035;-51
2021/10/16 05:37:56;;;;;;;7.35;4.80;;;;;;;;;;5072257;28;20028;-54
2021/10/16 05:40:22;;;;;;;8.57;5.10;;;;;;;;;;5066336;28;20032;-54
2021/10/16 05:42:48;;;;;;;7.63;4.90;;;;;;;;;;5069559;28;20028;-55
2021/10/16 05:45:14;;;;;;;7.45;5.22;;;;;;;;;;5086280;28;20116;-53
2021/10/16 05:47:43;;;;;;;7.18;5.10;;;;;;;;;;5084673;28;20032;-54
2021/10/16 05:50:10;;;;;;;7.38;5.00;;;;;;;;;;5066517;28;20024;-53
2021/10/16 05:52:37;;;;;;;8.43;5.72;;;;;;;;;;5065859;28;20036;-53
2021/10/16 05:55:04;;;;;;;7.78;5.05;;;;;;;;;;5080967;28;20034;-54
2021/10/16 05:57:30;;;;;;;8.57;5.53;;;;;;;;;;5066083;28;20463;-53
2021/10/16 05:59:56;;;;;;;8.15;5.50;;;;;;;;;;5067257;28;20130;-52
2021/10/16 06:02:22;;;;;;;8.68;5.38;;;;;;;;;;5066082;28;20391;-51
2021/10/16 06:04:48;;;;;;;8.43;5.75;;;;;;;;;;5066160;28;20115;-54
2021/10/16 06:07:14;;;;;;;9.43;5.85;;;;;;;;;;5069593;28;20060;-51
2021/10/16 06:09:40;;;;;;;9.73;6.25;;;;;;;;;;5072945;28;20043;-53
2021/10/16 06:12:06;;;;;;;7.65;5.43;;;;;;;;;;5075184;28;20024;-52
2021/10/16 06:14:32;;;;;;;8.43;5.55;;;;;;;;;;5086040;28;20060;-53
2021/10/16 06:16:58;;;;;;;8.57;5.97;;;;;;;;;;5074808;28;20024;-49
2021/10/16 06:19:24;;;;;;;8.90;6.05;;;;;;;;;;5065963;28;20553;-52
2021/10/16 06:21:51;;;;;;;9.77;5.28;;;;;;;;;;5079408;28;20028;-49
2021/10/16 06:24:17;;;;;;;7.57;5.38;;;;;;;;;;5085598;28;20073;-52
2021/10/16 06:26:43;;;;;;;9.73;5.97;;;;;;;;;;5075094;28;20120;-53
2021/10/16 06:29:09;;;;;;;7.70;5.50;;;;;;;;;;5066669;28;20099;-51
2021/10/16 06:31:36;;;;;;;8.75;6.03;;;;;;;;;;5078836;28;20432;-53
2021/10/16 06:34:02;;;;;;;8.35;5.60;;;;;;;;;;5084332;28;20039;-54
2021/10/16 06:36:28;;;;;;;8.57;5.70;;;;;;;;;;5071803;28;20040;-54
2021/10/16 06:38:54;;;;;;;7.63;5.60;;;;;;;;;;5068151;28;20025;-53
2021/10/16 06:41:20;;;;;;;7.47;5.18;;;;;;;;;;5075430;28;20027;-53
2021/10/16 06:43:46;;;;;;;7.63;5.05;;;;;;;;;;5071827;28;20025;-53
2021/10/16 06:46:12;;;;;;;8.25;5.35;;;;;;;;;;5069429;28;20035;-55
2021/10/16 06:48:38;;;;;;;8.45;5.47;;;;;;;;;;5077696;28;20029;-51
2021/10/16 06:51:05;;;;;;;8.50;5.88;;;;;;;;;;5069799;28;20028;-54
2021/10/16 06:53:32;;;;;;;9.70;5.72;;;;;;;;;;5073210;28;20127;-51
2021/10/16 06:55:58;;;;;;;8.13;5.60;;;;;;;;;;5067609;28;20042;-51
2021/10/16 06:58:24;;;;;;;7.95;5.40;;;;;;;;;;5066685;28;20052;-51
2021/10/16 07:00:51;;;;;;;8.00;5.30;;;;;;;;;;5068140;28;20508;-50
2021/10/16 07:03:17;;;;;;;8.98;5.68;;;;;;;;;;5067290;28;20024;-50
2021/10/16 07:05:45;;;;;;;8.63;5.70;;;;;;;;;;5073728;28;20388;-51
2021/10/16 07:08:12;;;;;;;10.77;6.10;;;;;;;;;;5067167;28;20028;-50
2021/10/16 07:10:39;;;;;;;9.32;5.53;;;;;;;;;;5082552;28;20048;-50
2021/10/16 07:13:05;;;;;;;8.32;5.63;;;;;;;;;;5087862;28;20414;-50
2021/10/16 07:15:32;;;;;;;7.65;5.25;;;;;;;;;;5083503;28;20100;-52
2021/10/16 07:17:58;;;;;;;7.55;4.93;;;;;;;;;;5077561;28;20023;-51
2021/10/16 07:20:24;;;;;;;7.80;4.85;;;;;;;;;;5078482;28;20035;-49
2021/10/16 07:22:50;;;;;;;8.93;5.38;;;;;;;;;;5089311;28;20084;-50
2021/10/16 07:25:17;;;;;;;9.43;5.30;;;;;;;;;;5075424;28;20036;-49
2021/10/16 07:27:45;;;;;;;7.78;5.35;;;;;;;;;;5081590;28;20406;-53
2021/10/16 07:30:11;;;;;;;8.90;5.47;;;;;;;;;;5089531;28;20035;-51
2021/10/16 07:32:37;;;;;;;8.13;5.22;;;;;;;;;;5068201;28;20032;-51
2021/10/16 07:35:04;;;;;;;7.97;5.47;;;;;;;;;;5067710;28;20040;-50
2021/10/16 07:37:30;;;;;;;10.88;6.10;;;;;;;;;;5068022;28;20029;-54
2021/10/16 07:39:56;;;;;;;7.78;5.38;;;;;;;;;;5068583;28;20020;-53
2021/10/16 07:42:22;;;;;;;7.32;4.95;;;;;;;;;;5067898;28;20012;-52
2021/10/16 07:44:48;;;;;;;8.65;5.50;;;;;;;;;;5068596;28;20089;-53
2021/10/16 07:47:14;;;;;;;8.07;5.55;;;;;;;;;;5068162;28;20029;-53
2021/10/16 07:49:40;;;;;;;8.57;5.60;;;;;;;;;;5068376;28;20543;-52
2021/10/16 07:52:06;;;;;;;10.02;6.32;;;;;;;;;;5068313;28;20029;-50
2021/10/16 07:54:32;;;;;;;10.73;6.13;;;;;;;;;;5069730;28;20541;-51
2021/10/16 07:57:01;;;;;;;9.80;5.80;;;;;;;;;;5066468;28;20046;-50
2021/10/16 07:59:28;;;;;;;9.70;5.85;;;;;;;;;;5067890;28;20020;-53
2021/10/16 08:01:55;;;;;;;8.40;5.60;;;;;;;;;;5070746;28;20012;-52
2021/10/16 08:04:21;;;;;;;10.32;6.00;;;;;;;;;;5068710;28;20047;-53
2021/10/16 08:06:47;;;;;;;9.45;5.57;;;;;;;;;;5078275;28;20035;-52
2021/10/16 08:09:13;;;;;;;10.93;6.50;;;;;;;;;;5086732;28;20716;-55
2021/10/16 08:11:40;;;;;;;10.10;6.07;;;;;;;;;;5077278;28;20252;-54
2021/10/16 08:14:06;;;;;;;13.02;7.22;;;;;;;;;;5080018;28;20032;-54
2021/10/16 08:16:32;;;;;;;12.02;6.88;;;;;;;;;;5078432;28;20087;-54
2021/10/16 08:18:58;;;;;;;11.15;6.63;;;;;;;;;;5087831;28;20024;-53
2021/10/16 08:21:24;;;;;;;10.05;5.95;;;;;;;;;;5073399;28;20453;-54
2021/10/16 08:23:51;;;;;;;11.77;6.80;;;;;;;;;;5070984;28;20039;-54
2021/10/16 08:26:17;;;;;;;10.63;6.30;;;;;;;;;;5067519;28;20470;-54
2021/10/16 08:28:43;;;;;;;8.45;5.45;;;;;;;;;;5068558;28;20419;-54
2021/10/16 08:31:09;;;;;;;8.25;6.05;;;;;;;;;;5068582;28;20469;-54
2021/10/16 08:33:37;;;;;;;11.85;6.82;;;;;;;;;;5067149;28;20406;-54
2021/10/16 08:36:04;;;;;;;12.35;6.88;;;;;;;;;;5067606;28;20032;-50
2021/10/16 08:38:30;;;;;;;11.57;7.03;;;;;;;;;;5067428;28;20025;-51
2021/10/16 08:40:56;;;;;;;11.38;7.03;;;;;;;;;;5067755;28;20433;-51
2021/10/16 08:43:23;;;;;;;11.75;6.72;;;;;;;;;;5067041;28;20689;-53
2021/10/16 08:45:49;;;;;;;10.10;6.88;;;;;;;;;;5070127;28;20025;-52
2021/10/16 08:48:15;;;;;;;9.43;6.07;;;;;;;;;;5066698;28;20100;-50
2021/10/16 08:50:43;;;;;;;12.20;6.35;;;;;;;;;;5067801;28;20035;-53
2021/10/16 08:53:09;;;;;;;9.65;5.95;;;;;;;;;;5075067;28;20028;-52
2021/10/16 08:55:36;;;;;;;8.35;5.63;;;;;;;;;;5086633;28;20853;-52
2021/10/16 08:58:02;;;;;;;8.68;5.57;;;;;;;;;;5087567;28;20396;-53
2021/10/16 09:00:58;;;;;;;9.70;6.30;;;;;;;;;;5086023;28;20024;-54
2021/10/16 09:03:23;;;;;;;9.23;6.10;;;;;;;;;;5080570;28;20081;-53
2021/10/16 09:06:09;;;;;;;8.57;5.70;;;;;;;;;;5087278;28;20024;-51
2021/10/16 09:08:40;;;;;;;9.95;6.38;;;;;;;;;;5086801;28;20035;-51
2021/10/16 09:11:13;;;;;;;11.48;6.82;;;;;;;;;;5085739;28;20040;-52
2021/10/16 09:13:42;;;;;;;8.57;5.97;;;;;;;;;;5086331;28;20032;-53
2021/10/16 09:16:30;;;;;;;8.57;6.00;;;;;;;;;;5086339;28;20255;-49
2021/10/16 09:18:57;;;;;;;8.75;5.50;;;;;;;;;;5085383;28;20051;-52
2021/10/16 09:21:24;;;;;;;8.60;5.68;;;;;;;;;;5085465;28;20081;-53
2021/10/16 09:24:02;;;;;;;8.13;5.60;;;;;;;;;;5085688;28;20052;-51
2021/10/16 09:26:28;;;;;;;10.13;5.72;;;;;;;;;;5085239;28;20024;-51
2021/10/16 09:28:58;;;;;;;8.35;5.63;;;;;;;;;;5085815;28;20476;-52
2021/10/16 09:31:27;;;;;;;8.23;5.60;;;;;;;;;;5085286;28;20023;-53
2021/10/16 09:33:53;;;;;;;9.10;5.70;;;;;;;;;;5085192;28;20031;-53
2021/10/16 09:36:22;;;;;;;9.23;6.70;;;;;;;;;;5085395;28;20016;-52
2021/10/16 09:38:49;;;;;;;8.50;6.05;;;;;;;;;;5085486;28;20028;-53
2021/10/16 09:41:44;;;;;;;8.88;6.07;;;;;;;;;;5085688;28;20028;-52
2021/10/16 09:44:20;;;;;;;8.63;5.57;;;;;;;;;;5080970;28;20127;-53
2021/10/16 09:46:58;;;;;;;7.57;5.63;;;;;;;;;;5085219;28;20024;-53
2021/10/16 09:49:29;;;;;;;10.18;6.85;;;;;;;;;;5084520;28;20031;-51
2021/10/16 09:51:55;;;;;;;11.25;7.25;;;;;;;;;;5085384;28;20032;-51
2021/10/16 09:54:21;;;;;;;11.63;7.75;;;;;;;;;;5084830;28;20593;-52
2021/10/16 09:56:48;;;;;;;10.88;7.55;;;;;;;;;;5085372;28;20095;-53
2021/10/16 09:59:18;;;;;;;9.50;7.28;;;;;;;;;;5084685;28;20024;-52
2021/10/16 10:01:46;;;;;;;10.63;7.03;;;;;;;;;;5085131;28;20019;-52
2021/10/16 10:04:12;;;;;;;8.85;5.82;;;;;;;;;;5085737;28;20422;-53
2021/10/16 10:06:40;;;;;;;9.45;6.30;;;;;;;;;;5088884;28;20340;-53
2021/10/16 10:09:07;;;;;;;9.32;6.28;;;;;;;;;;5089517;28;20557;-53
2021/10/16 10:11:36;;;;;;;9.60;6.30;;;;;;;;;;5089105;28;20510;-50
2021/10/16 10:14:05;;;;;;;11.77;7.55;;;;;;;;;;5089146;28;20074;-53
2021/10/16 10:16:32;;;;;;;9.35;6.70;;;;;;;;;;5089330;28;20020;-52
2021/10/16 10:19:00;;;;;;;9.90;7.07;;;;;;;;;;5089258;28;20035;-52
2021/10/16 10:21:31;;;;;;;9.88;6.90;;;;;;;;;;5089227;28;20028;-52
2021/10/16 10:23:58;;;;;;;10.40;6.50;;;;;;;;;;5088853;28;20031;-52
2021/10/16 10:26:27;;;;;;;10.05;6.60;;;;;;;;;;5088986;28;20887;-52
2021/10/16 10:28:58;;;;;;;9.02;6.25;;;;;;;;;;5089021;28;20150;-51
2021/10/16 10:31:43;;;;;;;7.85;5.47;;;;;;;;;;5088497;28;20247;-50
2021/10/16 10:34:12;;;;;;;10.25;6.47;;;;;;;;;;5089378;28;20032;-52
2021/10/16 10:36:45;;;;;;;11.88;6.80;;;;;;;;;;5089513;28;20052;-50
2021/10/16 10:39:34;;;;;;;11.75;7.03;;;;;;;;;;5089469;28;20027;-53
2021/10/16 10:42:23;;;;;;;11.75;7.40;;;;;;;;;;5088769;28;20024;-52
2021/10/16 10:44:57;;;;;;;11.57;7.05;;;;;;;;;;5088559;28;20032;-52
2021/10/16 10:47:35;;;;;;;10.73;6.95;;;;;;;;;;5088441;28;20032;-52
2021/10/16 10:50:01;;;;;;;11.35;6.78;;;;;;;;;;5088232;28;20036;-53
2021/10/16 10:52:29;;;;;;;9.05;6.43;;;;;;;;;;5088280;28;20471;-52
2021/10/16 10:55:04;;;;;;;8.93;6.38;;;;;;;;;;5088427;28;20038;-53
2021/10/16 10:57:47;;;;;;;9.77;6.30;;;;;;;;;;5088271;28;20507;-52
2021/10/16 11:00:36;;;;;;;9.18;6.05;;;;;;;;;;5088591;28;20027;-51
2021/10/16 11:03:23;;;;;;;9.43;5.90;;;;;;;;;;5088167;28;20099;-52
2021/10/16 11:05:49;;;;;;;11.52;7.50;;;;;;;;;;5084263;28;20169;-51
2021/10/16 11:08:15;;;;;;;9.32;6.22;;;;;;;;;;5088141;28;20081;-53
2021/10/16 11:10:43;;;;;;;7.85;5.22;;;;;;;;;;5089080;28;20375;-52
2021/10/16 11:13:13;;;;;;;8.27;5.72;;;;;;;;;;5088552;28;20069;-51
2021/10/16 11:15:41;;;;;;;7.82;5.18;;;;;;;;;;5087301;28;20028;-52
2021/10/16 11:18:11;;;;;;;9.18;5.85;;;;;;;;;;5087517;28;20061;-52
2021/10/16 11:20:38;;;;;;;6.65;4.78;;;;;;;;;;5076109;28;20036;-53
2021/10/16 11:23:04;;;;;;;6.55;4.80;;;;;;;;;;5069406;28;20024;-52
2021/10/16 11:25:32;;;;;;;7.40;5.05;;;;;;;;;;5068930;28;20032;-53
2021/10/16 11:28:02;;;;;;;7.45;5.20;;;;;;;;;;5068732;28;20402;-52
2021/10/16 11:30:28;;;;;;;6.45;4.70;;;;;;;;;;5068807;28;20636;-53
2021/10/16 11:33:03;;;;;;;6.07;4.20;;;;;;;;;;5068598;28;20124;-52
2021/10/16 11:35:29;;;;;;;7.32;5.45;;;;;;;;;;5072036;28;20043;-52
2021/10/16 11:37:55;;;;;;;8.00;6.07;;;;;;;;;;5068834;28;20612;-53
2021/10/16 11:40:22;;;;;;;10.43;6.80;;;;;;;;;;5074106;28;20081;-53
2021/10/16 11:42:50;;;;;;;10.63;6.88;;;;;;;;;;5081318;28;20114;-52
2021/10/16 11:45:20;;;;;;;10.00;6.18;;;;;;;;;;5088460;28;20032;-54
2021/10/16 11:47:51;;;;;;;7.85;5.30;;;;;;;;;;5073056;28;20104;-53
2021/10/16 11:50:21;;;;;;;8.30;5.80;;;;;;;;;;5084152;28;20036;-52
2021/10/16 11:53:06;;;;;;;8.57;5.88;;;;;;;;;;5068740;28;20803;-53
2021/10/16 11:55:32;;;;;;;7.57;5.18;;;;;;;;;;5067854;28;20040;-53
2021/10/16 11:58:05;;;;;;;6.90;5.18;;;;;;;;;;5068776;28;20061;-54
2021/10/16 12:00:32;;;;;;;6.72;4.45;;;;;;;;;;5069660;28;20028;-52
2021/10/16 12:02:58;;;;;;;6.57;4.80;;;;;;;;;;5067760;28;20032;-54
2021/10/16 12:05:27;;;;;;;6.10;5.03;;;;;;;;;;5065541;28;20059;-53
2021/10/16 12:07:55;;;;;;;7.10;4.82;;;;;;;;;;5065385;28;20032;-52
2021/10/16 12:10:35;;;;;;;6.15;4.53;;;;;;;;;;5065158;28;20036;-53
2021/10/16 12:13:06;;;;;;;6.25;4.60;;;;;;;;;;5066715;28;20016;-54
2021/10/16 12:15:40;;;;;;;11.82;6.93;;;;;;;;;;5066732;28;20403;-53
2021/10/16 12:18:06;;;;;;;9.20;6.40;;;;;;;;;;5066952;28;20100;-53
2021/10/16 12:20:52;;;;;;;7.25;5.65;;;;;;;;;;5066522;28;20425;-51
2021/10/16 12:23:19;;;;;;;10.70;7.55;;;;;;;;;;5066284;28;20024;-51
2021/10/16 12:25:46;;;;;;;8.98;6.38;;;;;;;;;;5066520;28;20038;-52
2021/10/16 12:28:12;;;;;;;6.75;5.32;;;;;;;;;;5066273;28;20032;-51
2021/10/16 12:30:38;;;;;;;7.88;5.82;;;;;;;;;;5067092;28;20033;-51
2021/10/16 12:33:10;;;;;;;8.07;5.97;;;;;;;;;;5066603;28;20027;-51
2021/10/16 12:35:36;;;;;;;7.03;4.90;;;;;;;;;;5066070;28;20074;-51
2021/10/16 12:38:03;;;;;;;8.10;6.05;;;;;;;;;;5066879;28;20023;-52
2021/10/16 12:40:36;;;;;;;7.90;6.05;;;;;;;;;;5065969;28;20536;-51
2021/10/16 12:43:03;;;;;;;6.57;5.28;;;;;;;;;;5066370;28;20024;-53
2021/10/16 12:45:39;;;;;;;6.65;4.95;;;;;;;;;;5064832;28;20055;-52
2021/10/16 12:48:27;;;;;;;6.30;4.85;;;;;;;;;;5066189;28;20107;-54
2021/10/16 12:50:54;;;;;;;6.47;4.65;;;;;;;;;;5066260;28;20024;-54
2021/10/16 12:53:20;;;;;;;6.50;4.25;;;;;;;;;;5064304;28;20549;-52
2021/10/16 12:55:47;;;;;;;7.07;5.15;;;;;;;;;;5066159;28;20107;-54
2021/10/16 12:58:14;;;;;;;5.47;4.28;;;;;;;;;;5065317;28;20028;-52
2021/10/16 13:00:44;;;;;;;6.47;4.25;;;;;;;;;;5066263;28;20039;-54
2021/10/16 13:03:11;;;;;;;5.22;4.38;;;;;;;;;;5066363;28;20028;-53
2021/10/16 13:05:37;;;;;;;7.07;5.25;;;;;;;;;;5065809;28;20032;-53
2021/10/16 13:08:04;;;;;;;4.78;3.80;;;;;;;;;;5065724;28;20024;-53
2021/10/16 13:10:30;;;;;;;5.10;4.15;;;;;;;;;;5065588;28;20036;-53
2021/10/16 13:12:56;;;;;;;6.80;4.85;;;;;;;;;;5065802;28;20070;-53
2021/10/16 13:15:23;;;;;;;6.78;4.65;;;;;;;;;;5064956;28;20115;-53
2021/10/16 13:17:50;;;;;;;4.88;3.80;;;;;;;;;;5065501;28;20523;-53
2021/10/16 13:20:16;;;;;;;5.40;3.88;;;;;;;;;;5065282;28;20025;-52
2021/10/16 13:22:42;;;;;;;4.95;3.60;;;;;;;;;;5065971;28;20024;-54
2021/10/16 13:25:09;;;;;;;4.90;3.75;;;;;;;;;;5064693;28;20491;-54
2021/10/16 13:27:36;;;;;;;5.70;3.53;;;;;;;;;;5065405;28;20028;-53
2021/10/16 13:30:03;;;;;;;5.03;3.70;;;;;;;;;;5065410;28;20476;-52
2021/10/16 13:32:29;;;;;;;5.50;3.80;;;;;;;;;;5065232;28;20082;-54
2021/10/16 13:34:56;;;;;;;4.80;4.03;;;;;;;;;;5065187;28;20063;-54
2021/10/16 13:37:22;;;;;;;6.00;4.18;;;;;;;;;;5065103;28;20099;-54
2021/10/16 13:39:48;;;;;;;4.80;3.72;;;;;;;;;;5065466;28;20227;-54
2021/10/16 13:42:14;;;;;;;4.90;3.78;;;;;;;;;;5065125;28;20279;-53
2021/10/16 13:44:40;;;;;;;4.93;3.67;;;;;;;;;;5065562;28;20032;-52
2021/10/16 13:47:06;;;;;;;4.75;3.80;;;;;;;;;;5065105;28;20032;-52
2021/10/16 13:49:32;;;;;;;4.28;3.80;;;;;;;;;;5064711;28;20119;-54
2021/10/16 13:51:58;;;;;;;4.78;4.00;;;;;;;;;;5065273;28;20438;-54
2021/10/16 13:54:24;;;;;;;4.50;3.80;;;;;;;;;;5064911;28;20032;-50
2021/10/16 13:56:50;;;;;;;7.97;5.75;;;;;;;;;;5065218;28;20021;-52
2021/10/16 13:59:17;;;;;;;6.45;5.00;;;;;;;;;;5064493;28;20032;-53
2021/10/16 14:01:44;;;;;;;6.70;4.80;;;;;;;;;;5065143;28;20033;-52
2021/10/16 14:04:11;;;;;;;5.05;3.97;;;;;;;;;;5065543;28;20024;-53
2021/10/16 14:06:37;;;;;;;5.15;3.97;;;;;;;;;;5064764;28;20024;-53
2021/10/16 14:09:03;;;;;;;7.20;5.45;;;;;;;;;;5065219;28;20492;-54
2021/10/16 14:11:29;;;;;;;5.80;4.40;;;;;;;;;;5064588;28;20706;-54
2021/10/16 14:13:55;;;;;;;6.15;4.40;;;;;;;;;;5064643;28;20028;-54
2021/10/16 14:16:22;;;;;;;6.07;4.18;;;;;;;;;;5064859;28;20036;-51
2021/10/16 14:18:48;;;;;;;4.75;3.85;;;;;;;;;;5064872;28;20125;-53
2021/10/16 14:21:14;;;;;;;5.80;4.18;;;;;;;;;;5064318;28;20484;-54
2021/10/16 14:23:41;;;;;;;5.60;4.15;;;;;;;;;;5065531;28;20035;-53
2021/10/16 14:26:08;;;;;;;5.25;3.72;;;;;;;;;;5064941;28;20031;-53
2021/10/16 14:28:35;;;;;;;5.95;4.35;;;;;;;;;;5064526;28;20021;-54
2021/10/16 14:31:02;;;;;;;4.38;3.65;;;;;;;;;;5064564;28;20033;-54
2021/10/16 14:33:28;;;;;;;4.35;3.20;;;;;;;;;;5064494;28;20031;-53
2021/10/16 14:35:54;;;;;;;5.03;3.83;;;;;;;;;;5064785;28;20115;-54
2021/10/16 14:38:24;;;;;;;5.00;3.60;;;;;;;;;;5064559;28;20104;-54
2021/10/16 14:40:50;;;;;;;4.50;3.80;;;;;;;;;;5064708;28;20092;-55
2021/10/16 14:43:16;;;;;;;3.97;3.22;;;;;;;;;;5064198;28;20542;-53